Aérodrome :
LOGIN :

S'inscrire | Disclaimer

   EN    FR    IT 

 










Légende :    VFR   VFR Marginal   IFR   IFR Intensif   IFR Très Intensif
Visi : 
Plafond : 
>= 8 km
>= 3000ft
5 à 8 km
1000 à 3000 ft
1500m à 5 km
500 à 1000 ft
800 à 1500m
200 à 500 ft
< 800m
< 200 ft
Symboles :   Orages  Brouillard  Fortes neiges  Fortes précipitations  Vent > 20 kt
SIGMETs :   Divers  Orages  Givrage  Turbulence  Onde Orograph.  Cendres Volcan.






- Altitude de l'aérodrome : 55 ft
- Code IATA : DSA


EGCN - Robin Hood Doncaster Sheffield

DERNIER METAR :
  • 250350Z 19006KT 5000 BR OVC019 06/05 Q1018

METARs EXPIRÉS :
  • 250320Z AUTO 19007KT 5000 BR OVC017/// 06/05 Q1018
  • 250250Z AUTO 17005KT 9999 OVC016/// 06/05 Q1019
  • 250220Z AUTO 20005KT 9999 BKN013/// OVC018/// 06/05 Q1019
  • 250150Z 20003KT 9999 BKN010 OVC015 06/05 Q1019
  • 250120Z 21006KT 9999 OVC011 06/05 Q1019

TAF TAF EGCN
Valide du 25 à 00h jusqu'au 26 à 00h UTC


242258Z 2500/2524 21005KT 9999 FEW014 BKN020
TEMPO 2500/2510 8000
PROB40
TEMPO 2500/2509 4000 BR BKN014
BECMG 2518/2521 5000 BR BKN008
TEMPO 2519/2524 3000 -DZ BKN004



MET'MAP, la Météo Aéronautique d'un coup d'oeil ! - Copyright ORBIFLY Décembre 2007 - Disclaimer

ORBIFLY MET'MAP TEAM :

Programmation & Développement : Alexandra Zaïnal
Sur une idée originale de : Baudouin d'Aumeries
Assistance à la programmation : Marc-Olivier Méhu
Soutien technique & logistique : Manuel Goepfert

Contact : metmap@orbifly.com




SOURCES & CREDITS :

   NOAA